Time;durP1;ratioP1;P1;durP2;ratioP2;P2;SDS_P1;SDS_P2;PMS_P1;PMS_P2;Temp;Humidity;BMP_temperature;BMP_pressure;BME280_temperature;BME280_humidity;BME280_pressure;Samples;Min_cycle;Max_cycle;Signal;HPM_P1;HPM_P2
2022/08/02 00:02:11;;;;;;;2.75;1.60;;;;;;;27.76;45.00;100422.92;1758892;80;21098;-83
2022/08/02 00:04:38;;;;;;;1.50;1.30;;;;;;;27.76;45.01;100422.11;1758881;80;21041;-83
2022/08/02 00:07:04;;;;;;;1.72;1.30;;;;;;;27.76;45.00;100421.53;1758522;80;21521;-83
2022/08/02 00:09:31;;;;;;;1.52;1.30;;;;;;;27.75;45.01;100418.54;1759067;80;21039;-83
2022/08/02 00:11:57;;;;;;;3.40;1.50;;;;;;;27.76;45.01;100421.53;1759056;81;21107;-83
2022/08/02 00:14:24;;;;;;;1.98;1.50;;;;;;;27.76;45.02;100415.94;1758684;81;21391;-83
2022/08/02 00:16:50;;;;;;;2.12;1.50;;;;;;;27.76;45.04;100422.92;1758665;80;21607;-83
2022/08/02 00:19:16;;;;;;;1.47;1.35;;;;;;;27.76;45.04;100423.52;1757400;80;21059;-83
2022/08/02 00:21:43;;;;;;;2.45;1.70;;;;;;;27.76;45.06;100425.72;1756974;80;21005;-83
2022/08/02 00:24:09;;;;;;;1.85;1.42;;;;;;;27.75;45.04;100428.33;1757364;81;21976;-83
2022/08/02 00:26:36;;;;;;;2.17;1.65;;;;;;;27.76;45.07;100433.30;1757402;80;20993;-83
2022/08/02 00:29:03;;;;;;;1.85;1.50;;;;;;;27.75;45.08;100426.12;1757015;81;21112;-83
2022/08/02 00:31:29;;;;;;;2.40;1.50;;;;;;;27.76;45.08;100429.10;1757421;81;21511;-83
2022/08/02 00:33:56;;;;;;;2.10;1.60;;;;;;;27.75;45.08;100430.31;1757441;81;21087;-83
2022/08/02 00:36:22;;;;;;;1.50;1.37;;;;;;;27.75;45.10;100433.91;1757084;80;21898;-83
2022/08/02 00:38:49;;;;;;;1.30;1.20;;;;;;;27.75;45.10;100435.31;1757181;81;21024;-82
2022/08/02 00:41:18;;;;;;;2.00;1.45;;;;;;;27.74;45.11;100430.89;1750307;81;21040;-83
2022/08/02 00:43:45;;;;;;;1.85;1.60;;;;;;;27.74;45.13;100428.10;1750294;82;21479;-83
2022/08/02 00:46:11;;;;;;;1.80;1.45;;;;;;;27.75;45.13;100426.92;1750821;80;21075;-83
2022/08/02 00:48:38;;;;;;;1.92;1.45;;;;;;;27.74;45.15;100421.11;1750721;82;21099;-82
2022/08/02 00:51:04;;;;;;;2.10;1.62;;;;;;;27.75;45.15;100424.13;1750634;82;20992;-83
2022/08/02 00:53:31;;;;;;;3.02;1.75;;;;;;;27.74;45.15;100425.30;1747681;80;21001;-82
2022/08/02 00:55:58;;;;;;;2.02;1.67;;;;;;;27.74;45.15;100425.30;1722599;82;21305;-83
2022/08/02 00:58:24;;;;;;;1.92;1.55;;;;;;;27.74;45.17;100430.09;1722332;83;21500;-83
2022/08/02 01:00:51;;;;;;;2.22;1.67;;;;;;;27.75;45.16;100428.33;1722551;83;20940;-83
2022/08/02 01:03:17;;;;;;;2.27;1.70;;;;;;;27.74;45.20;100426.70;1722358;83;21490;-83
2022/08/02 01:05:44;;;;;;;2.05;1.67;;;;;;;27.73;45.20;100430.67;1722392;83;21079;-83
2022/08/02 01:08:16;;;;;;;2.20;1.87;;;;;;;27.73;45.21;100424.27;1722275;83;20941;-83
2022/08/02 01:10:43;;;;;;;2.20;1.50;;;;;;;27.74;45.20;100432.30;1722703;83;20949;-83
2022/08/02 01:13:09;;;;;;;2.00;1.70;;;;;;;27.73;45.22;100429.27;1722270;83;21165;-83
2022/08/02 01:15:40;;;;;;;2.45;1.77;;;;;;;27.73;45.22;100426.48;1722512;83;20924;-84
2022/08/02 01:18:13;;;;;;;2.05;1.70;;;;;;;27.73;45.21;100433.47;1722574;83;21007;-83
2022/08/02 01:21:03;;;;;;;2.30;1.50;;;;;;;27.73;45.23;100428.47;1722353;83;21035;-83
2022/08/02 01:23:59;;;;;;;2.05;1.62;;;;;;;27.73;45.24;100420.08;1722632;80;21063;-82
2022/08/02 01:26:46;;;;;;;1.87;1.67;;;;;;;27.72;45.22;100422.06;1722599;82;21764;-83
2022/08/02 01:29:29;;;;;;;2.08;1.50;;;;;;;27.71;45.23;100423.23;1722889;82;21408;-83
2022/08/02 01:32:07;;;;;;;2.42;1.85;;;;;;;27.71;45.23;100417.65;1722623;83;21044;-83
2022/08/02 01:34:41;;;;;;;1.90;1.50;;;;;;;27.70;45.25;100414.66;1722705;80;21024;-83
2022/08/02 01:37:21;;;;;;;2.00;1.72;;;;;;;27.70;45.26;100417.45;1722584;82;21510;-84
2022/08/02 01:39:51;;;;;;;2.67;1.92;;;;;;;27.70;45.30;100420.25;1729006;81;21118;-84
2022/08/02 01:42:17;;;;;;;4.30;1.70;;;;;;;27.68;45.29;100419.80;1728987;81;21068;-83
2022/08/02 01:44:44;;;;;;;3.47;1.90;;;;;;;27.69;45.32;100420.03;1744658;82;21020;-82
2022/08/02 01:47:17;;;;;;;2.52;1.72;;;;;;;27.69;45.33;100416.65;1727572;82;21064;-82
2022/08/02 01:49:45;;;;;;;1.80;1.50;;;;;;;27.69;45.32;100420.03;1744502;82;21057;-83
2022/08/02 01:52:21;;;;;;;2.10;1.70;;;;;;;27.69;45.35;100419.44;1744546;81;21803;-83
2022/08/02 01:54:59;;;;;;;2.00;1.60;;;;;;;27.69;45.35;100421.42;1744199;82;21543;-82
2022/08/02 01:57:26;;;;;;;2.12;1.72;;;;;;;27.69;45.35;100422.83;1744725;80;21077;-83
2022/08/02 01:59:54;;;;;;;3.00;1.72;;;;;;;27.69;45.37;100421.42;1744166;80;21068;-83
2022/08/02 02:02:20;;;;;;;2.10;1.52;;;;;;;27.70;45.36;100420.25;1727847;82;21623;-83
2022/08/02 02:04:47;;;;;;;2.22;1.30;;;;;;;27.68;45.37;100424.00;1752248;81;21512;-83
2022/08/02 02:07:14;;;;;;;2.12;1.60;;;;;;;27.69;45.38;100428.41;1747215;80;21678;-83
2022/08/02 02:09:41;;;;;;;2.05;1.57;;;;;;;27.69;45.38;100429.22;1751704;81;21112;-83
2022/08/02 02:12:08;;;;;;;1.98;1.60;;;;;;;27.69;45.39;100428.41;1751639;82;21038;-83
2022/08/02 02:14:34;;;;;;;2.42;1.50;;;;;;;27.68;45.43;100426.79;1751438;80;20998;-83
2022/08/02 02:17:01;;;;;;;2.00;1.80;;;;;;;27.68;45.41;100423.41;1751554;80;21059;-83
2022/08/02 02:19:27;;;;;;;1.92;1.70;;;;;;;27.68;45.42;100424.00;1751717;81;20982;-83
2022/08/02 02:21:54;;;;;;;1.90;1.70;;;;;;;27.69;45.43;100429.81;1732165;81;21496;-83
2022/08/02 02:24:20;;;;;;;3.55;1.77;;;;;;;27.69;45.42;100422.83;1751735;80;21069;-83
2022/08/02 02:26:47;;;;;;;2.00;1.65;;;;;;;27.68;45.43;100423.41;1751615;82;21106;-83
2022/08/02 02:29:13;;;;;;;1.87;1.62;;;;;;;27.68;45.42;100427.60;1751396;82;21890;-83
2022/08/02 02:31:43;;;;;;;2.02;1.77;;;;;;;27.68;45.43;100421.20;1751660;80;21065;-83
2022/08/02 02:34:14;;;;;;;2.87;1.50;;;;;;;27.68;45.43;100430.40;1751538;82;21547;-83
2022/08/02 02:36:45;;;;;;;2.12;1.80;;;;;;;27.68;45.43;100429.59;1751228;80;21014;-83
2022/08/02 02:39:11;;;;;;;2.17;1.70;;;;;;;27.69;45.44;100436.80;1750840;81;21010;-83
2022/08/02 02:41:44;;;;;;;2.37;1.70;;;;;;;27.67;45.44;100432.97;1734865;80;21120;-83
2022/08/02 02:44:13;;;;;;;2.60;1.82;;;;;;;27.68;45.43;100429.59;1717011;82;21238;-83
2022/08/02 02:46:40;;;;;;;2.87;1.90;;;;;;;27.68;45.44;100433.78;1703415;83;21031;-82
2022/08/02 02:49:08;;;;;;;2.15;1.50;;;;;;;27.67;45.47;100426.57;1703421;82;21019;-83
2022/08/02 02:51:35;;;;;;;3.42;2.08;;;;;;;27.67;45.44;100431.57;1703242;83;21077;-82
2022/08/02 02:54:01;;;;;;;1.90;1.67;;;;;;;27.67;45.45;100426.57;1703203;82;22008;-83
2022/08/02 02:56:28;;;;;;;2.33;1.98;;;;;;;27.67;45.45;100428.78;1703311;82;21011;-83
2022/08/02 02:58:54;;;;;;;2.20;1.65;;;;;;;27.67;45.47;100433.55;1703085;82;21048;-83
2022/08/02 03:01:28;;;;;;;2.70;1.65;;;;;;;27.67;45.45;100434.95;1703399;84;21038;-83
2022/08/02 03:03:54;;;;;;;2.60;1.67;;;;;;;27.66;45.47;100434.17;1703411;82;21094;-83
2022/08/02 03:06:21;;;;;;;2.40;1.95;;;;;;;27.66;45.46;100432.78;1703185;83;21064;-83
2022/08/02 03:08:47;;;;;;;2.35;1.50;;;;;;;27.67;45.46;100436.35;1703421;84;21212;-82
2022/08/02 03:11:14;;;;;;;1.95;1.67;;;;;;;27.66;45.46;100434.17;1703567;84;20960;-83
2022/08/02 03:13:40;;;;;;;2.77;1.90;;;;;;;27.66;45.47;100441.16;1703254;84;21546;-83
2022/08/02 03:16:07;;;;;;;2.83;1.80;;;;;;;27.66;45.49;100449.55;1703550;82;20983;-83
2022/08/02 03:18:39;;;;;;;2.00;1.70;;;;;;;27.66;45.47;100455.14;1703424;84;20988;-83
2022/08/02 03:21:11;;;;;;;3.15;1.92;;;;;;;27.66;45.49;100455.14;1703280;83;21035;-83
2022/08/02 03:23:38;;;;;;;2.62;1.65;;;;;;;27.66;45.47;100460.73;1702946;83;21082;-83
2022/08/02 03:26:05;;;;;;;2.52;2.00;;;;;;;27.66;45.49;100462.12;1703409;83;21458;-83
2022/08/02 03:28:32;;;;;;;2.50;1.60;;;;;;;27.66;45.50;100458.52;1702942;84;21035;-82
2022/08/02 03:30:59;;;;;;;2.77;1.80;;;;;;;27.65;45.50;100460.50;1703403;83;21126;-83
2022/08/02 03:33:26;;;;;;;2.22;1.90;;;;;;;27.66;45.51;100458.52;1703342;83;21473;-83
2022/08/02 03:35:54;;;;;;;2.30;1.67;;;;;;;27.65;45.51;100461.91;1703192;83;20984;-83
2022/08/02 03:38:22;;;;;;;2.10;1.70;;;;;;;27.66;45.52;100462.71;1703382;82;21510;-84
2022/08/02 03:40:48;;;;;;;2.47;2.27;;;;;;;27.65;45.51;100463.30;1703554;83;21038;-83
2022/08/02 03:43:15;;;;;;;2.20;1.72;;;;;;;27.65;45.51;100466.68;1655148;85;21177;-83
2022/08/02 03:45:50;;;;;;;2.42;1.72;;;;;;;27.65;45.52;100463.30;1671271;85;21573;-83
2022/08/02 03:48:14;;;;;;;2.67;1.90;;;;;;;27.65;45.52;100465.28;1721494;82;21086;-83
2022/08/02 03:50:41;;;;;;;2.17;1.87;;;;;;;27.65;45.51;100463.30;1721537;82;21014;-83
2022/08/02 03:53:08;;;;;;;2.72;2.00;;;;;;;27.64;45.53;100465.87;1721702;82;21101;-83
2022/08/02 03:55:34;;;;;;;4.00;1.98;;;;;;;27.64;45.54;100472.86;1721674;82;21081;-83
2022/08/02 03:58:01;;;;;;;3.02;1.90;;;;;;;27.65;45.56;100473.66;1750448;81;21532;-84
2022/08/02 04:00:27;;;;;;;3.95;2.05;;;;;;;27.65;45.56;100474.48;1751523;80;21075;-83
2022/08/02 04:02:54;;;;;;;2.37;1.80;;;;;;;27.65;45.56;100477.86;1751803;81;21078;-83
2022/08/02 04:05:20;;;;;;;2.67;1.90;;;;;;;27.65;45.58;100472.27;1777223;79;21094;-83
2022/08/02 04:07:49;;;;;;;3.50;2.00;;;;;;;27.65;45.57;100482.86;1751817;80;20912;-83
2022/08/02 04:10:16;;;;;;;2.45;1.90;;;;;;;27.65;45.58;100489.04;1751642;80;21026;-83
2022/08/02 04:12:43;;;;;;;2.27;1.90;;;;;;;27.65;45.57;100490.44;1751202;80;21070;-83
2022/08/02 04:15:12;;;;;;;2.95;1.90;;;;;;;27.64;45.57;100496.61;1751637;80;21593;-83
2022/08/02 04:17:46;;;;;;;2.30;2.10;;;;;;;27.65;45.58;100497.42;1777220;79;20991;-82
2022/08/02 04:20:21;;;;;;;2.65;2.00;;;;;;;27.65;45.59;100504.41;1751547;80;21426;-84
2022/08/02 04:23:09;;;;;;;2.35;1.87;;;;;;;27.65;45.59;100510.00;1751404;82;20998;-83
2022/08/02 04:25:35;;;;;;;2.83;2.20;;;;;;;27.65;45.59;100512.80;1751426;80;21069;-83
2022/08/02 04:28:02;;;;;;;2.40;1.87;;;;;;;27.64;45.58;100509.19;1779759;79;21027;-83
2022/08/02 04:30:29;;;;;;;2.67;2.00;;;;;;;27.64;45.58;100509.78;1751821;81;21035;-83
2022/08/02 04:32:55;;;;;;;2.33;2.00;;;;;;;27.65;45.62;100512.80;1751349;80;21159;-83
2022/08/02 04:35:22;;;;;;;2.83;1.70;;;;;;;27.65;45.62;100510.00;1751505;80;21014;-83
2022/08/02 04:37:48;;;;;;;2.40;1.90;;;;;;;27.65;45.62;100503.02;1751375;80;21066;-83
2022/08/02 04:40:15;;;;;;;2.35;1.85;;;;;;;27.65;45.60;100504.41;1750686;81;21042;-83
2022/08/02 04:42:41;;;;;;;2.55;2.05;;;;;;;27.64;45.63;100506.39;1743386;81;21153;-83
2022/08/02 04:45:09;;;;;;;2.40;2.02;;;;;;;27.64;45.63;100505.00;1743294;82;21147;-83
2022/08/02 04:47:35;;;;;;;3.47;2.02;;;;;;;27.64;45.63;100506.39;1743102;81;21465;-83
2022/08/02 04:50:02;;;;;;;3.00;2.10;;;;;;;27.65;45.63;100505.81;1743400;80;21741;-83
2022/08/02 04:52:28;;;;;;;2.45;2.17;;;;;;;27.65;45.64;100511.40;1743359;81;21046;-83
2022/08/02 04:54:55;;;;;;;2.90;2.15;;;;;;;27.63;45.65;100514.55;1742951;80;21071;-83
2022/08/02 05:00:13;;;;;;;2.37;2.00;;;;;;;27.64;45.64;100519.55;1721331;82;21063;-83
2022/08/02 05:02:39;;;;;;;2.83;1.72;;;;;;;27.63;45.70;100520.14;1743150;81;21079;-83
2022/08/02 05:05:07;;;;;;;3.72;2.50;;;;;;;27.63;45.70;100522.13;1742936;81;21078;-83
2022/08/02 05:07:36;;;;;;;3.37;1.90;;;;;;;27.61;45.72;100523.11;1742696;81;21117;-83
2022/08/02 05:10:03;;;;;;;5.33;2.83;;;;;;;27.59;45.78;100520.67;1733581;80;21167;-83
2022/08/02 05:12:30;;;;;;;4.15;2.35;;;;;;;27.57;45.80;100520.84;1720856;82;21565;-83
2022/08/02 05:14:56;;;;;;;3.75;2.45;;;;;;;27.57;45.82;100519.44;1720994;82;21584;-83
2022/08/02 05:17:23;;;;;;;3.58;2.52;;;;;;;27.55;45.85;100528.19;1721014;83;21051;-83
2022/08/02 05:19:49;;;;;;;5.37;3.40;;;;;;;27.54;45.87;100530.76;1699891;83;21080;-84
2022/08/02 05:22:16;;;;;;;4.15;3.20;;;;;;;27.53;45.90;100530.56;1712821;83;21115;-82
2022/08/02 05:24:42;;;;;;;4.67;2.92;;;;;;;27.52;45.92;100537.32;1689724;84;21148;-83
2022/08/02 05:27:08;;;;;;;4.87;3.58;;;;;;;27.51;45.96;100541.28;1689944;83;21560;-83
2022/08/02 05:29:35;;;;;;;5.42;3.70;;;;;;;27.49;45.97;100542.27;1689692;84;21572;-83
2022/08/02 05:32:01;;;;;;;4.80;3.67;;;;;;;27.49;45.99;100546.45;1689736;84;21061;-83
2022/08/02 05:34:28;;;;;;;5.17;3.10;;;;;;;27.49;46.00;100541.45;1689509;83;21168;-83
2022/08/02 05:36:54;;;;;;;4.42;3.37;;;;;;;27.48;46.05;100546.81;1689909;84;21011;-83
2022/08/02 05:39:21;;;;;;;5.17;3.33;;;;;;;27.47;46.06;100554.39;1690331;84;21473;-83
2022/08/02 05:41:47;;;;;;;4.05;2.77;;;;;;;27.47;46.08;100550.20;1690151;82;21089;-83
2022/08/02 05:44:24;;;;;;;4.67;3.20;;;;;;;27.46;46.11;100550.52;1690114;83;21077;-83
2022/08/02 05:46:52;;;;;;;7.60;3.92;;;;;;;27.45;46.13;100551.14;1689336;84;20993;-85
2022/08/02 05:49:18;;;;;;;5.85;3.50;;;;;;;27.44;46.13;100553.70;1690055;83;21049;-83
2022/08/02 05:52:16;;;;;;;3.10;2.80;;;;;;;27.43;46.15;100549.29;1690272;84;21112;-83
2022/08/02 05:55:09;;;;;;;5.25;3.08;;;;;;;27.43;46.15;100547.89;1678552;83;21076;-83
2022/08/02 05:58:15;;;;;;;6.95;3.47;;;;;;;27.43;46.13;100558.25;1694245;83;21119;-83
2022/08/02 06:00:41;;;;;;;5.28;3.35;;;;;;;27.34;46.06;100554.88;1694270;84;21057;-83
2022/08/02 06:03:36;;;;;;;5.03;3.77;;;;;;;27.23;46.07;100558.30;1694440;84;21095;-83
2022/08/02 06:06:12;;;;;;;4.83;3.00;;;;;;;27.18;46.04;100556.38;1693939;84;21016;-83
2022/08/02 06:08:41;;;;;;;5.78;2.90;;;;;;;27.09;46.09;100558.58;1694380;84;21079;-83
2022/08/02 06:11:14;;;;;;;8.58;3.47;;;;;;;27.04;46.24;100563.88;1694199;83;21111;-83
2022/08/02 06:13:41;;;;;;;4.83;3.15;;;;;;;27.03;46.33;100558.06;1694340;83;21138;-83
2022/08/02 06:16:08;;;;;;;9.98;3.35;;;;;;;27.04;46.36;100567.25;1694276;84;21803;-83
2022/08/02 06:18:34;;;;;;;21.40;4.42;;;;;;;27.07;46.39;100570.14;1678691;84;21552;-82
2022/08/02 06:21:04;;;;;;;9.88;3.55;;;;;;;27.08;46.35;100568.94;1666460;84;21060;-83
2022/08/02 06:23:31;;;;;;;14.33;3.83;;;;;;;27.10;46.41;100565.20;1701810;84;21570;-82
2022/08/02 06:25:58;;;;;;;18.70;3.95;;;;;;;27.13;46.38;100576.22;1704997;84;21911;-82
2022/08/02 06:28:25;;;;;;;13.50;4.25;;;;;;;27.14;46.37;100575.86;1708302;83;21071;-82
2022/08/02 06:30:52;;;;;;;11.55;3.25;;;;;;;27.12;46.39;100567.03;1678686;84;21139;-83
2022/08/02 06:33:19;;;;;;;8.50;3.58;;;;;;;27.14;46.38;100566.09;1693803;83;21067;-82
2022/08/02 06:35:58;;;;;;;8.88;3.50;;;;;;;27.15;46.37;100574.69;1697731;83;21534;-83
2022/08/02 06:38:27;;;;;;;12.43;3.70;;;;;;;27.17;46.37;100570.92;1694272;84;21156;-83
2022/08/02 06:41:06;;;;;;;8.35;3.42;;;;;;;27.19;46.33;100572.78;1693987;83;20957;-82
2022/08/02 06:43:56;;;;;;;5.92;3.62;;;;;;;27.19;46.30;100574.17;1686658;85;21080;-82
2022/08/02 06:46:22;;;;;;;13.03;3.37;;;;;;;27.21;46.29;100575.99;1682324;85;21084;-83
2022/08/02 06:48:49;;;;;;;14.20;3.77;;;;;;;27.23;46.26;100569.47;1658596;85;21100;-82
2022/08/02 06:51:15;;;;;;;10.18;3.52;;;;;;;27.24;46.27;100569.66;1658640;85;21569;-82
2022/08/02 06:53:42;;;;;;;6.92;2.85;;;;;;;27.24;46.23;100566.88;1658512;85;21067;-83
2022/08/02 06:56:08;;;;;;;7.58;2.98;;;;;;;27.25;46.25;100565.70;1658127;86;21052;-83
2022/08/02 06:58:35;;;;;;;6.05;2.98;;;;;;;27.27;46.24;100565.34;1661609;85;21080;-82
2022/08/02 07:01:01;;;;;;;10.18;3.35;;;;;;;27.28;46.24;100566.35;1684427;84;21132;-83
2022/08/02 07:03:28;;;;;;;9.10;2.83;;;;;;;27.28;46.18;100569.77;1682312;85;21189;-83
2022/08/02 07:05:57;;;;;;;8.85;3.20;;;;;;;27.28;46.11;100570.54;1682137;85;21066;-83
2022/08/02 07:08:25;;;;;;;6.65;2.90;;;;;;;27.28;46.10;100576.13;1682172;85;21042;-83
2022/08/02 07:10:51;;;;;;;6.33;3.60;;;;;;;27.28;46.12;100574.73;1687563;83;21094;-82
2022/08/02 07:13:18;;;;;;;5.20;3.02;;;;;;;27.27;46.07;100577.91;1682628;85;21068;-82
2022/08/02 07:15:44;;;;;;;7.25;4.17;;;;;;;27.26;46.11;100579.89;1682280;83;21485;-82
2022/08/02 07:18:13;;;;;;;4.90;2.77;;;;;;;27.26;46.11;100575.70;1682046;83;21094;-82
2022/08/02 07:20:39;;;;;;;9.30;3.55;;;;;;;27.27;46.13;100572.33;1681461;83;21125;-82
2022/08/02 07:23:05;;;;;;;5.42;2.80;;;;;;;27.28;46.11;100572.55;1682122;84;21135;-83
2022/08/02 07:25:32;;;;;;;7.90;3.47;;;;;;;27.28;46.10;100564.95;1684380;85;21091;-83
2022/08/02 07:27:58;;;;;;;4.42;2.90;;;;;;;27.30;46.04;100560.99;1684332;83;21128;-83
2022/08/02 07:30:25;;;;;;;5.40;2.90;;;;;;;27.28;45.91;100568.36;1684966;85;21538;-83
2022/08/02 07:32:52;;;;;;;5.65;2.95;;;;;;;27.27;45.87;100570.93;1684438;85;21044;-83
2022/08/02 07:35:23;;;;;;;5.83;3.02;;;;;;;27.28;45.78;100570.34;1681144;85;21592;-83
2022/08/02 07:37:50;;;;;;;4.87;2.67;;;;;;;27.26;45.73;100570.70;1673676;85;21072;-83
2022/08/02 07:40:17;;;;;;;7.00;2.85;;;;;;;27.25;45.74;100569.08;1681392;85;21297;-84
2022/08/02 07:42:43;;;;;;;5.37;2.67;;;;;;;27.25;45.77;100571.28;1691571;82;21080;-83
2022/08/02 07:45:11;;;;;;;7.47;3.02;;;;;;;27.27;45.74;100570.93;1695738;84;21139;-83
2022/08/02 07:47:38;;;;;;;8.68;3.27;;;;;;;27.29;45.72;100571.36;1673848;84;21142;-83
2022/08/02 07:50:06;;;;;;;4.22;3.00;;;;;;;27.30;45.72;100565.99;1700901;82;21121;-82
2022/08/02 07:52:32;;;;;;;8.68;3.02;;;;;;;27.31;45.62;100566.80;1703749;84;21098;-82
2022/08/02 07:54:59;;;;;;;4.65;3.02;;;;;;;27.31;45.57;100565.41;1703364;84;21187;-82
2022/08/02 07:57:25;;;;;;;4.30;2.50;;;;;;;27.33;45.50;100572.84;1703255;84;21524;-82
2022/08/02 07:59:51;;;;;;;4.28;2.60;;;;;;;27.32;45.45;100564.23;1703793;83;21062;-82
2022/08/02 08:02:18;;;;;;;6.78;2.80;;;;;;;27.31;45.45;100569.02;1703426;82;21104;-82
2022/08/02 08:04:45;;;;;;;3.75;3.05;;;;;;;27.31;45.42;100567.62;1703604;84;21174;-83
2022/08/02 08:07:17;;;;;;;5.58;2.77;;;;;;;27.32;45.36;100573.43;1703975;82;21034;-82
2022/08/02 08:09:46;;;;;;;4.22;2.47;;;;;;;27.33;45.32;100568.66;1703832;82;21117;-83
2022/08/02 08:12:12;;;;;;;5.12;2.42;;;;;;;27.33;45.32;100568.66;1686803;82;21098;-82
2022/08/02 08:14:39;;;;;;;6.55;2.55;;;;;;;27.34;45.29;100566.05;1664944;84;21115;-83
2022/08/02 08:17:05;;;;;;;2.62;2.42;;;;;;;27.35;45.23;100568.49;1665320;86;21229;-83
2022/08/02 08:19:32;;;;;;;6.87;2.60;;;;;;;27.36;45.21;100565.11;1665496;86;21127;-83
2022/08/02 08:21:59;;;;;;;4.53;2.52;;;;;;;27.36;45.11;100569.30;1665375;86;21091;-82
2022/08/02 08:24:26;;;;;;;4.72;2.75;;;;;;;27.33;45.04;100561.06;1665108;86;21067;-83
2022/08/02 08:26:54;;;;;;;3.25;2.62;;;;;;;27.32;45.10;100552.48;1665639;86;21063;-83
2022/08/02 08:29:20;;;;;;;10.18;3.00;;;;;;;27.33;45.05;100561.67;1665605;86;21091;-82
2022/08/02 08:31:47;;;;;;;4.25;2.42;;;;;;;27.33;44.97;100562.45;1665296;86;21538;-82
2022/08/02 08:34:13;;;;;;;5.42;2.40;;;;;;;27.33;44.92;100563.07;1665666;84;21667;-82
2022/08/02 08:36:40;;;;;;;3.45;2.42;;;;;;;27.32;44.93;100566.45;1665116;86;21063;-82
2022/08/02 08:39:07;;;;;;;5.22;2.27;;;;;;;27.33;44.99;100563.84;1687982;84;21071;-82
2022/08/02 08:41:34;;;;;;;4.72;2.25;;;;;;;27.36;44.92;100557.55;1695234;83;21151;-82
2022/08/02 08:44:00;;;;;;;3.15;2.22;;;;;;;27.36;44.85;100565.11;1701440;83;21048;-83
2022/08/02 08:46:32;;;;;;;2.67;2.17;;;;;;;27.37;44.78;100566.73;1720516;83;21869;-82
2022/08/02 08:49:21;;;;;;;4.83;2.08;;;;;;;27.37;44.74;100562.55;1720678;83;21079;-83
2022/08/02 08:51:48;;;;;;;3.55;2.25;;;;;;;27.37;44.63;100568.14;1719805;83;21558;-82
2022/08/02 08:54:15;;;;;;;3.62;1.92;;;;;;;27.35;44.66;100567.09;1720030;83;21001;-83
2022/08/02 08:56:42;;;;;;;4.85;2.25;;;;;;;27.35;44.55;100562.09;1722828;82;20983;-84
2022/08/02 08:59:09;;;;;;;2.72;2.00;;;;;;;27.35;44.49;100562.91;1723093;83;21010;-83
2022/08/02 09:01:35;;;;;;;3.90;1.98;;;;;;;27.35;44.42;100557.91;1721413;81;21063;-82
2022/08/02 09:04:02;;;;;;;3.00;1.82;;;;;;;27.36;44.46;100556.73;1720651;83;21072;-82
2022/08/02 09:06:29;;;;;;;2.95;1.92;;;;;;;27.37;44.29;100559.75;1720298;83;21096;-82
2022/08/02 09:08:55;;;;;;;3.80;2.10;;;;;;;27.36;44.32;100560.34;1720516;83;21075;-83
2022/08/02 09:11:24;;;;;;;3.45;2.10;;;;;;;27.38;44.32;100559.95;1720432;81;21051;-82
2022/08/02 09:14:02;;;;;;;6.12;2.35;;;;;;;27.39;44.34;100558.78;1720271;83;21087;-82
2022/08/02 09:16:37;;;;;;;3.75;2.02;;;;;;;27.39;44.26;100556.80;1720056;82;21013;-83
2022/08/02 09:19:19;;;;;;;3.08;1.90;;;;;;;27.41;44.25;100557.84;1725097;81;21111;-83
2022/08/02 09:21:47;;;;;;;3.77;1.82;;;;;;;27.42;44.20;100551.05;1717845;83;21024;-82
2022/08/02 09:24:21;;;;;;;4.55;1.65;;;;;;;27.41;44.16;100550.27;1732414;81;21089;-83
2022/08/02 09:26:49;;;;;;;3.05;2.02;;;;;;;27.41;44.01;100548.87;1746558;81;21071;-82
2022/08/02 09:29:24;;;;;;;2.75;1.60;;;;;;;27.42;43.98;100551.05;1750817;81;21516;-82
2022/08/02 09:31:51;;;;;;;2.02;1.70;;;;;;;27.40;43.93;100542.24;1744886;81;21235;-82
2022/08/02 09:34:18;;;;;;;2.75;1.90;;;;;;;27.40;43.74;100546.44;1745322;81;21062;-82
2022/08/02 09:36:47;;;;;;;2.37;1.85;;;;;;;27.39;43.80;100545.63;1751111;81;21021;-82
2022/08/02 09:39:15;;;;;;;6.22;1.72;;;;;;;27.40;43.80;100535.26;1750631;81;21049;-82
2022/08/02 09:42:04;;;;;;;5.00;2.02;;;;;;;27.41;43.67;100538.28;1742762;81;21093;-82
2022/08/02 09:44:37;;;;;;;2.98;1.80;;;;;;;27.41;43.54;100535.48;1770985;79;21150;-81
2022/08/02 09:47:15;;;;;;;1.82;1.60;;;;;;;27.41;43.49;100537.69;1773688;79;21092;-82
2022/08/02 09:49:46;;;;;;;1.70;1.50;;;;;;;27.42;43.43;100530.09;1740323;81;21065;-81
2022/08/02 09:52:12;;;;;;;1.95;1.65;;;;;;;27.43;43.29;100526.13;1761148;80;21335;-81
2022/08/02 09:54:39;;;;;;;4.28;1.65;;;;;;;27.43;43.24;100528.92;1735246;80;21606;-81
2022/08/02 09:57:06;;;;;;;2.67;1.40;;;;;;;27.44;43.20;100534.15;1741931;80;21533;-81
2022/08/02 09:59:34;;;;;;;3.20;1.52;;;;;;;27.43;42.92;100524.14;1741432;80;21088;-81
2022/08/02 10:02:04;;;;;;;2.62;1.77;;;;;;;27.44;42.79;100526.35;1741654;81;21029;-81
2022/08/02 10:04:35;;;;;;;3.15;1.92;;;;;;;27.44;42.77;100525.77;1706958;82;21097;-82
2022/08/02 10:07:04;;;;;;;2.52;1.72;;;;;;;27.46;42.89;100529.56;1754693;80;21088;-82
2022/08/02 10:09:30;;;;;;;2.83;1.67;;;;;;;27.47;43.01;100534.83;1759239;80;21159;-82
2022/08/02 10:11:57;;;;;;;2.22;1.55;;;;;;;27.48;42.87;100528.66;1754679;80;21394;-82
2022/08/02 10:14:24;;;;;;;1.62;1.30;;;;;;;27.49;42.60;100528.87;1750748;79;21108;-82
2022/08/02 10:16:51;;;;;;;2.22;1.32;;;;;;;27.49;42.49;100521.89;1769104;79;22099;-82
2022/08/02 10:19:17;;;;;;;2.83;1.35;;;;;;;27.49;42.35;100521.89;1766803;81;21044;-81
2022/08/02 10:21:49;;;;;;;2.40;1.27;;;;;;;27.50;42.03;100516.50;1739375;79;21116;-81
2022/08/02 10:24:20;;;;;;;1.77;1.10;;;;;;;27.49;41.79;100514.91;1731597;81;20943;-82
2022/08/02 10:26:46;;;;;;;4.12;1.20;;;;;;;27.51;41.60;100516.14;1736683;80;21128;-81
2022/08/02 10:29:22;;;;;;;2.45;1.40;;;;;;;27.50;41.47;100517.89;1793067;79;21603;-82
2022/08/02 10:31:53;;;;;;;2.85;1.40;;;;;;;27.51;41.52;100515.33;1755718;79;21077;-81
2022/08/02 10:34:22;;;;;;;1.87;1.20;;;;;;;27.50;41.63;100519.30;1746678;79;22066;-82
2022/08/02 10:36:49;;;;;;;1.90;1.70;;;;;;;27.52;41.52;100518.34;1758585;80;21068;-81
2022/08/02 10:39:15;;;;;;;1.67;1.30;;;;;;;27.52;41.57;100516.95;1765100;80;21009;-82
2022/08/02 10:41:47;;;;;;;2.67;1.50;;;;;;;27.53;41.35;100509.60;1760242;81;21123;-80
2022/08/02 10:44:27;;;;;;;3.67;1.50;;;;;;;27.53;41.46;100511.59;1718543;81;21031;-80
2022/08/02 10:47:22;;;;;;;4.30;1.50;;;;;;;27.53;41.60;100508.20;1715853;83;21303;-80
2022/08/02 10:49:57;;;;;;;3.30;1.55;;;;;;;27.54;41.77;100509.02;1692452;83;21074;-79
2022/08/02 10:52:27;;;;;;;7.53;1.30;;;;;;;27.54;41.79;100509.80;1693396;83;21023;-79
2022/08/02 10:55:02;;;;;;;3.00;1.42;;;;;;;27.56;41.71;100503.84;1692527;84;21070;-80
2022/08/02 10:57:30;;;;;;;1.90;1.27;;;;;;;27.56;41.64;100501.86;1692295;83;21388;-80
2022/08/02 11:00:15;;;;;;;3.17;1.60;;;;;;;27.56;41.69;100493.48;1693224;83;22001;-80
2022/08/02 11:02:50;;;;;;;2.90;1.60;;;;;;;27.58;41.67;100495.91;1650481;83;21042;-79
2022/08/02 11:05:29;;;;;;;1.45;1.20;;;;;;;27.58;41.74;100502.90;1693228;84;21564;-80
2022/08/02 11:07:56;;;;;;;2.45;1.20;;;;;;;27.58;41.67;100496.70;1712926;83;20968;-80
2022/08/02 11:10:37;;;;;;;1.62;1.25;;;;;;;27.57;41.63;100495.10;1718858;82;21082;-80
2022/08/02 11:13:10;;;;;;;2.05;1.20;;;;;;;27.57;41.50;100495.10;1718633;83;21991;-81
2022/08/02 11:16:03;;;;;;;1.65;1.10;;;;;;;27.58;41.51;100498.09;1704737;83;21118;-80
2022/08/02 11:18:58;;;;;;;2.52;1.40;;;;;;;27.60;41.45;100496.33;1693411;83;21126;-81
2022/08/02 11:21:32;;;;;;;1.57;1.25;;;;;;;27.59;41.57;100501.11;1693803;84;21109;-80
2022/08/02 11:24:28;;;;;;;2.45;1.20;;;;;;;27.61;41.57;100493.77;1693779;84;21061;-81
2022/08/02 11:26:56;;;;;;;1.20;1.00;;;;;;;27.61;41.46;100493.77;1693875;84;21961;-81
2022/08/02 11:29:40;;;;;;;3.30;1.10;;;;;;;27.60;41.32;100495.75;1693692;84;21023;-81
2022/08/02 11:32:19;;;;;;;1.98;1.20;;;;;;;27.61;41.19;100495.97;1693950;83;21070;-80
2022/08/02 11:34:48;;;;;;;2.27;1.20;;;;;;;27.62;41.06;100491.19;1693679;83;21505;-81
2022/08/02 11:37:30;;;;;;;1.87;1.05;;;;;;;27.63;41.03;100487.19;1693962;84;21153;-81
2022/08/02 11:39:56;;;;;;;1.77;1.30;;;;;;;27.64;41.01;100480.43;1706630;82;21453;-81